Time,TemperatureF,DewpointF,PressureIn,WindDirection,WindDirectionDegrees,WindSpeedMPH,WindSpeedGustMPH,Humidity,HourlyPrecipIn,Conditions,Clouds,dailyrainin,SolarRadiationWatts/m^2,SoftwareType,DateUTC
2013-11-23 00:23:00,38.0,32.0,-100.00,North,7,7.0,16.0,79,0.00,,,-99.99,0.000000,,2013-11-23 05:23:00,
2013-11-23 00:33:00,38.0,32.0,-100.00,North,7,7.0,16.0,79,0.00,,,-99.99,0.000000,,2013-11-23 05:33:00,
2013-11-23 00:43:00,38.0,32.0,-100.00,North,7,7.0,16.0,79,0.00,,,-99.99,0.000000,,2013-11-23 05:43:00,
2013-11-23 01:12:00,37.0,31.0,-100.00,North,2,6.0,13.0,79,0.00,,,0.14,0.000000,,2013-11-23 06:12:00,
2013-11-23 01:22:00,37.0,31.0,-100.00,North,2,6.0,13.0,79,0.00,,,0.14,0.000000,,2013-11-23 06:22:00,
2013-11-23 01:32:00,37.0,31.0,-100.00,North,2,6.0,13.0,79,0.00,,,0.14,0.000000,,2013-11-23 06:32:00,
2013-11-23 01:42:00,37.0,31.0,-100.00,North,2,6.0,13.0,79,0.00,,,0.14,0.000000,,2013-11-23 06:42:00,
2013-11-23 02:22:00,36.0,31.0,-100.00,NNW,342,7.0,13.0,81,0.00,,,0.14,0.000000,,2013-11-23 07:22:00,
2013-11-23 02:32:00,36.0,31.0,-100.00,NNW,342,7.0,13.0,81,0.00,,,0.14,0.000000,,2013-11-23 07:32:00,
2013-11-23 02:42:00,36.0,31.0,-100.00,NNW,342,7.0,13.0,81,0.00,,,0.14,0.000000,,2013-11-23 07:42:00,
2013-11-23 03:12:00,35.0,31.0,-100.00,NNW,337,4.0,11.0,85,0.00,,,0.14,0.000000,,2013-11-23 08:12:00,
2013-11-23 03:22:00,35.0,31.0,-100.00,NNW,337,4.0,11.0,85,0.00,,,0.14,0.000000,,2013-11-23 08:22:00,
2013-11-23 03:32:00,35.0,31.0,-100.00,NNW,337,4.0,11.0,85,0.00,,,0.14,0.000000,,2013-11-23 08:32:00,
2013-11-23 03:42:00,35.0,31.0,-100.00,NNW,337,4.0,11.0,85,0.00,,,0.14,0.000000,,2013-11-23 08:42:00,
2013-11-23 04:12:00,34.0,30.0,-100.00,NNW,338,6.0,12.0,85,0.00,,,0.13,0.000000,,2013-11-23 09:12:00,
2013-11-23 04:22:00,34.0,30.0,-100.00,NNW,338,6.0,12.0,85,0.00,,,0.13,0.000000,,2013-11-23 09:22:00,
2013-11-23 04:33:00,34.0,30.0,-100.00,NNW,338,6.0,12.0,85,0.00,,,0.13,0.000000,,2013-11-23 09:33:00,
2013-11-23 04:43:00,34.0,30.0,-100.00,NNW,338,6.0,12.0,85,0.00,,,0.13,0.000000,,2013-11-23 09:43:00,
2013-11-23 06:23:00,33.0,29.0,-100.00,North,352,5.0,11.0,85,-99.99,,,0.09,0.000000,,2013-11-23 11:23:00,
2013-11-23 06:33:00,33.0,29.0,-100.00,North,352,5.0,11.0,85,-99.99,,,0.09,0.000000,,2013-11-23 11:33:00,
2013-11-23 06:43:00,33.0,29.0,-100.00,North,352,5.0,11.0,85,-99.99,,,0.09,0.000000,,2013-11-23 11:43:00,
2013-11-23 07:12:00,31.0,28.0,-100.00,NW,317,4.0,11.0,87,0.00,,,0.07,0.000000,,2013-11-23 12:12:00,
2013-11-23 07:22:00,31.0,28.0,-100.00,NW,317,4.0,11.0,87,0.00,,,0.07,0.000000,,2013-11-23 12:22:00,
2013-11-23 07:32:00,31.0,28.0,-100.00,NW,317,4.0,11.0,87,0.00,,,0.07,0.000000,,2013-11-23 12:32:00,
2013-11-23 07:42:00,31.0,28.0,-100.00,NW,317,4.0,11.0,87,0.00,,,0.07,0.000000,,2013-11-23 12:42:00,
2013-11-23 08:22:00,30.0,28.0,-100.00,NW,311,4.0,8.0,91,0.00,,,0.05,3.000000,,2013-11-23 13:22:00,
2013-11-23 08:32:00,30.0,28.0,-100.00,NW,311,4.0,8.0,91,0.00,,,0.05,3.000000,,2013-11-23 13:32:00,
2013-11-23 08:42:00,30.0,28.0,-100.00,NW,311,4.0,8.0,91,0.00,,,0.05,3.000000,,2013-11-23 13:42:00,
2013-11-23 09:22:00,31.0,27.0,-100.00,WNW,302,6.0,10.0,86,0.00,,,0.02,71.000000,,2013-11-23 14:22:00,
2013-11-23 09:32:00,31.0,27.0,-100.00,WNW,302,6.0,10.0,86,0.00,,,0.02,71.000000,,2013-11-23 14:32:00,
2013-11-23 09:42:00,31.0,27.0,-100.00,WNW,302,6.0,10.0,86,0.00,,,0.02,71.000000,,2013-11-23 14:42:00,
2013-11-23 10:22:00,33.0,26.0,-100.00,NW,305,6.0,12.0,74,0.00,,,0.01,149.000000,,2013-11-23 15:22:00,
2013-11-23 10:33:00,33.0,26.0,-100.00,NW,305,6.0,12.0,74,0.00,,,0.01,149.000000,,2013-11-23 15:33:00,
2013-11-23 10:43:00,33.0,26.0,-100.00,NW,305,6.0,12.0,74,0.00,,,0.01,149.000000,,2013-11-23 15:43:00,
2013-11-23 11:23:00,36.0,19.0,-100.00,West,281,8.0,12.0,50,0.00,,,0.00,292.000000,,2013-11-23 16:23:00,
2013-11-23 11:33:00,36.0,19.0,-100.00,West,281,8.0,12.0,50,0.00,,,0.00,292.000000,,2013-11-23 16:33:00,
2013-11-23 11:43:00,36.0,19.0,-100.00,West,281,8.0,12.0,50,0.00,,,0.00,292.000000,,2013-11-23 16:43:00,
2013-11-23 12:22:00,37.0,19.0,-100.00,NW,311,9.0,16.0,47,0.00,,,0.00,382.000000,,2013-11-23 17:22:00,
2013-11-23 12:34:00,37.0,19.0,-100.00,NW,311,9.0,16.0,47,0.00,,,0.00,382.000000,,2013-11-23 17:34:00,
2013-11-23 12:42:00,37.0,19.0,-100.00,NW,311,9.0,16.0,47,0.00,,,0.00,382.000000,,2013-11-23 17:42:00,
2013-11-23 13:22:00,36.0,15.0,-100.00,NW,308,12.0,19.0,42,0.00,,,0.00,365.000000,,2013-11-23 18:22:00,
2013-11-23 13:33:00,36.0,15.0,-100.00,NW,308,12.0,19.0,42,0.00,,,0.00,365.000000,,2013-11-23 18:33:00,
2013-11-23 13:42:00,36.0,15.0,-100.00,NW,308,12.0,19.0,42,0.00,,,0.00,365.000000,,2013-11-23 18:42:00,
2013-11-23 14:22:00,33.0,19.0,-100.00,NW,317,14.0,26.0,55,0.00,,,0.00,375.000000,,2013-11-23 19:22:00,
2013-11-23 14:32:00,33.0,19.0,-100.00,NW,317,14.0,26.0,55,0.00,,,0.00,375.000000,,2013-11-23 19:32:00,
2013-11-23 14:42:00,33.0,19.0,-100.00,NW,317,14.0,26.0,55,0.00,,,0.00,375.000000,,2013-11-23 19:42:00,
2013-11-23 15:22:00,33.0,19.0,-100.00,NW,304,11.0,25.0,55,0.00,,,0.00,242.000000,,2013-11-23 20:22:00,
2013-11-23 15:32:00,33.0,19.0,-100.00,NW,304,11.0,25.0,55,0.00,,,0.00,242.000000,,2013-11-23 20:32:00,
2013-11-23 15:42:00,33.0,19.0,-100.00,NW,304,11.0,25.0,55,0.00,,,0.00,242.000000,,2013-11-23 20:42:00,
2013-11-23 16:22:00,32.0,16.0,-100.00,NW,312,13.0,23.0,52,0.00,,,0.00,230.000000,,2013-11-23 21:22:00,
2013-11-23 16:33:00,32.0,16.0,-100.00,NW,312,13.0,23.0,52,0.00,,,0.00,230.000000,,2013-11-23 21:33:00,
2013-11-23 16:43:00,32.0,16.0,-100.00,NW,312,13.0,23.0,52,0.00,,,0.00,230.000000,,2013-11-23 21:43:00,
2013-11-23 17:13:00,30.0,14.0,-100.00,NNW,339,13.0,24.0,51,0.00,,,0.00,95.000000,,2013-11-23 22:13:00,
2013-11-23 17:23:00,30.0,14.0,-100.00,NNW,339,13.0,24.0,51,0.00,,,0.00,95.000000,,2013-11-23 22:23:00,
2013-11-23 17:33:00,30.0,14.0,-100.00,NNW,339,13.0,24.0,51,0.00,,,0.00,95.000000,,2013-11-23 22:33:00,
2013-11-23 17:43:00,30.0,14.0,-100.00,NNW,339,13.0,24.0,51,0.00,,,0.00,95.000000,,2013-11-23 22:43:00,
2013-11-23 18:22:00,28.0,14.0,-100.00,NW,321,13.0,25.0,54,0.00,,,0.00,14.000000,,2013-11-23 23:22:00,
2013-11-23 18:33:00,28.0,14.0,-100.00,NW,321,13.0,25.0,54,0.00,,,0.00,14.000000,,2013-11-23 23:33:00,
2013-11-23 18:42:00,28.0,14.0,-100.00,NW,321,13.0,25.0,54,0.00,,,0.00,14.000000,,2013-11-23 23:42:00,
2013-11-23 19:22:00,26.0,9.0,-100.00,North,350,11.0,22.0,49,0.00,,,0.00,0.000000,,2013-11-24 00:22:00,
2013-11-23 19:32:00,26.0,9.0,-100.00,North,350,11.0,22.0,49,0.00,,,0.00,0.000000,,2013-11-24 00:32:00,
2013-11-23 19:42:00,26.0,9.0,-100.00,North,350,11.0,22.0,49,0.00,,,0.00,0.000000,,2013-11-24 00:42:00,
2013-11-23 20:22:00,25.0,9.0,-100.00,NNW,346,12.0,23.0,50,0.00,,,0.00,0.000000,,2013-11-24 01:22:00,
2013-11-23 20:32:00,25.0,9.0,-100.00,NNW,346,12.0,23.0,50,0.00,,,0.00,0.000000,,2013-11-24 01:32:00,
2013-11-23 20:42:00,25.0,9.0,-100.00,NNW,346,12.0,23.0,50,0.00,,,0.00,0.000000,,2013-11-24 01:42:00,
2013-11-23 21:22:00,24.0,11.0,-100.00,NNW,334,9.0,21.0,57,0.00,,,0.00,0.000000,,2013-11-24 02:22:00,
2013-11-23 21:32:00,24.0,11.0,-100.00,NNW,334,9.0,21.0,57,0.00,,,0.00,0.000000,,2013-11-24 02:32:00,
2013-11-23 21:42:00,24.0,11.0,-100.00,NNW,334,9.0,21.0,57,0.00,,,0.00,0.000000,,2013-11-24 02:42:00,
2013-11-23 22:22:00,24.0,13.0,-100.00,NNW,345,10.0,19.0,62,0.00,,,0.00,0.000000,,2013-11-24 03:22:00,
2013-11-23 22:33:00,24.0,13.0,-100.00,NNW,345,10.0,19.0,62,0.00,,,0.00,0.000000,,2013-11-24 03:33:00,
2013-11-23 22:43:00,24.0,13.0,-100.00,NNW,345,10.0,19.0,62,0.00,,,0.00,0.000000,,2013-11-24 03:43:00,
2013-11-23 23:23:00,23.0,12.0,-100.00,North,350,10.0,17.0,63,0.00,,,0.00,0.000000,,2013-11-24 04:23:00,
2013-11-23 23:33:00,23.0,12.0,-100.00,North,350,10.0,17.0,63,0.00,,,0.00,0.000000,,2013-11-24 04:33:00,
2013-11-23 23:42:00,23.0,12.0,-100.00,North,350,10.0,17.0,63,0.00,,,0.00,0.000000,,2013-11-24 04:42:00,